sensor_id;sensor_type;location;lat;lon;timestamp;pressure;altitude;pressure_sealevel;temperature;humidity
78299;BME280;67556;55.656;12.590;2023-02-24T00:01:13;100605.28;;;2.45;76.00
78299;BME280;67556;55.656;12.590;2023-02-24T00:03:50;100603.88;;;2.37;76.27
78299;BME280;67556;55.656;12.590;2023-02-24T00:06:18;100599.13;;;2.44;75.22
78299;BME280;67556;55.656;12.590;2023-02-24T00:08:45;100598.94;;;2.41;75.60
78299;BME280;67556;55.656;12.590;2023-02-24T00:11:13;100598.41;;;2.47;75.44
78299;BME280;67556;55.656;12.590;2023-02-24T00:13:41;100597.28;;;2.43;75.63
78299;BME280;67556;55.656;12.590;2023-02-24T00:16:13;100584.25;;;2.45;75.24
78299;BME280;67556;55.656;12.590;2023-02-24T00:18:41;100580.19;;;2.50;74.96
78299;BME280;67556;55.656;12.590;2023-02-24T00:21:10;100585.75;;;2.55;75.50
78299;BME280;67556;55.656;12.590;2023-02-24T00:23:41;100573.75;;;2.32;76.02
78299;BME280;67556;55.656;12.590;2023-02-24T00:26:09;100588.94;;;2.22;75.61
78299;BME280;67556;55.656;12.590;2023-02-24T00:28:37;100579.13;;;2.33;75.68
78299;BME280;67556;55.656;12.590;2023-02-24T00:31:06;100574.56;;;2.31;75.56
78299;BME280;67556;55.656;12.590;2023-02-24T00:33:36;100575.41;;;2.16;76.48
78299;BME280;67556;55.656;12.590;2023-02-24T00:36:05;100558.72;;;2.29;75.45
78299;BME280;67556;55.656;12.590;2023-02-24T00:38:32;100568.22;;;2.40;75.35
78299;BME280;67556;55.656;12.590;2023-02-24T00:41:07;100562.25;;;2.30;75.48
78299;BME280;67556;55.656;12.590;2023-02-24T00:43:38;100561.06;;;2.24;75.66
78299;BME280;67556;55.656;12.590;2023-02-24T00:46:05;100549.34;;;2.19;76.51
78299;BME280;67556;55.656;12.590;2023-02-24T00:48:37;100551.44;;;2.25;75.94
78299;BME280;67556;55.656;12.590;2023-02-24T00:51:07;100548.84;;;2.12;75.44
78299;BME280;67556;55.656;12.590;2023-02-24T00:53:35;100546.13;;;1.97;76.79
78299;BME280;67556;55.656;12.590;2023-02-24T00:56:04;100541.09;;;2.00;77.07
78299;BME280;67556;55.656;12.590;2023-02-24T00:58:33;100544.31;;;1.96;77.05
78299;BME280;67556;55.656;12.590;2023-02-24T01:01:00;100537.44;;;1.98;76.87
78299;BME280;67556;55.656;12.590;2023-02-24T01:03:29;100537.56;;;1.99;77.12
78299;BME280;67556;55.656;12.590;2023-02-24T01:05:59;100524.31;;;1.98;76.02
78299;BME280;67556;55.656;12.590;2023-02-24T01:08:26;100512.75;;;2.22;75.52
78299;BME280;67556;55.656;12.590;2023-02-24T01:10:56;100520.69;;;1.96;76.44
78299;BME280;67556;55.656;12.590;2023-02-24T01:13:39;100523.72;;;1.75;77.49
78299;BME280;67556;55.656;12.590;2023-02-24T01:16:06;100500.72;;;1.71;77.85
78299;BME280;67556;55.656;12.590;2023-02-24T01:18:33;100513.22;;;1.89;76.69
78299;BME280;67556;55.656;12.590;2023-02-24T01:21:00;100516.38;;;1.70;77.65
78299;BME280;67556;55.656;12.590;2023-02-24T01:23:27;100503.53;;;1.74;77.22
78299;BME280;67556;55.656;12.590;2023-02-24T01:25:53;100499.69;;;1.83;76.91
78299;BME280;67556;55.656;12.590;2023-02-24T01:28:22;100498.28;;;1.74;77.39
78299;BME280;67556;55.656;12.590;2023-02-24T01:30:51;100499.09;;;1.73;77.70
78299;BME280;67556;55.656;12.590;2023-02-24T01:33:17;100494.16;;;1.65;77.77
78299;BME280;67556;55.656;12.590;2023-02-24T01:35:44;100487.19;;;1.79;77.28
78299;BME280;67556;55.656;12.590;2023-02-24T01:38:11;100479.63;;;1.70;77.95
78299;BME280;67556;55.656;12.590;2023-02-24T01:40:37;100474.88;;;1.78;77.36
78299;BME280;67556;55.656;12.590;2023-02-24T01:43:05;100475.78;;;1.78;77.24
78299;BME280;67556;55.656;12.590;2023-02-24T01:45:34;100474.88;;;1.78;77.20
78299;BME280;67556;55.656;12.590;2023-02-24T01:48:07;100469.50;;;1.76;77.84
78299;BME280;67556;55.656;12.590;2023-02-24T01:50:35;100465.75;;;1.99;76.37
78299;BME280;67556;55.656;12.590;2023-02-24T01:53:06;100465.34;;;1.80;76.86
78299;BME280;67556;55.656;12.590;2023-02-24T01:55:39;100444.75;;;1.86;77.22
78299;BME280;67556;55.656;12.590;2023-02-24T01:58:10;100443.28;;;2.04;75.74
78299;BME280;67556;55.656;12.590;2023-02-24T02:00:41;100449.38;;;2.03;75.97
78299;BME280;67556;55.656;12.590;2023-02-24T02:03:18;100447.19;;;2.24;75.33
78299;BME280;67556;55.656;12.590;2023-02-24T02:05:48;100441.66;;;2.34;75.39
78299;BME280;67556;55.656;12.590;2023-02-24T02:08:17;100444.97;;;2.17;75.61
78299;BME280;67556;55.656;12.590;2023-02-24T02:10:51;100438.88;;;2.46;74.82
78299;BME280;67556;55.656;12.590;2023-02-24T02:13:27;100419.31;;;2.56;74.01
78299;BME280;67556;55.656;12.590;2023-02-24T02:16:22;100418.16;;;2.22;74.75
78299;BME280;67556;55.656;12.590;2023-02-24T02:19:06;100407.69;;;2.37;74.96
78299;BME280;67556;55.656;12.590;2023-02-24T02:22:00;100424.56;;;2.41;74.57
78299;BME280;67556;55.656;12.590;2023-02-24T02:24:36;100409.00;;;2.59;74.95
78299;BME280;67556;55.656;12.590;2023-02-24T02:27:16;100409.63;;;2.55;74.27
78299;BME280;67556;55.656;12.590;2023-02-24T02:30:17;100399.03;;;2.53;74.96
78299;BME280;67556;55.656;12.590;2023-02-24T02:33:24;100396.28;;;2.52;74.63
78299;BME280;67556;55.656;12.590;2023-02-24T02:35:59;100398.97;;;2.23;75.88
78299;BME280;67556;55.656;12.590;2023-02-24T02:38:35;100396.28;;;2.09;76.75
78299;BME280;67556;55.656;12.590;2023-02-24T02:41:11;100393.13;;;2.14;76.42
78299;BME280;67556;55.656;12.590;2023-02-24T02:43:50;100381.56;;;2.25;76.08
78299;BME280;67556;55.656;12.590;2023-02-24T02:46:25;100378.94;;;2.25;76.22
78299;BME280;67556;55.656;12.590;2023-02-24T02:49:04;100367.44;;;2.23;76.57
78299;BME280;67556;55.656;12.590;2023-02-24T02:51:37;100365.19;;;2.30;76.80
78299;BME280;67556;55.656;12.590;2023-02-24T02:54:10;100366.16;;;2.32;76.53
78299;BME280;67556;55.656;12.590;2023-02-24T02:56:42;100356.75;;;2.20;77.29
78299;BME280;67556;55.656;12.590;2023-02-24T02:59:12;100354.31;;;2.23;77.28
78299;BME280;67556;55.656;12.590;2023-02-24T03:01:47;100339.72;;;2.29;76.63
78299;BME280;67556;55.656;12.590;2023-02-24T03:04:16;100348.94;;;2.22;76.81
78299;BME280;67556;55.656;12.590;2023-02-24T03:06:51;100339.19;;;2.34;76.94
78299;BME280;67556;55.656;12.590;2023-02-24T03:09:21;100333.75;;;2.46;76.54
78299;BME280;67556;55.656;12.590;2023-02-24T03:11:54;100335.72;;;2.35;76.42
78299;BME280;67556;55.656;12.590;2023-02-24T03:14:31;100322.97;;;2.41;76.09
78299;BME280;67556;55.656;12.590;2023-02-24T03:17:07;100309.75;;;2.55;75.58
78299;BME280;67556;55.656;12.590;2023-02-24T03:19:38;100306.56;;;2.60;74.68
78299;BME280;67556;55.656;12.590;2023-02-24T03:22:09;100296.50;;;2.38;75.37
78299;BME280;67556;55.656;12.590;2023-02-24T03:24:37;100298.56;;;2.44;75.80
78299;BME280;67556;55.656;12.590;2023-02-24T03:27:07;100297.03;;;2.47;75.58
78299;BME280;67556;55.656;12.590;2023-02-24T03:29:42;100288.06;;;2.44;75.17
78299;BME280;67556;55.656;12.590;2023-02-24T03:32:17;100284.16;;;2.52;75.58
78299;BME280;67556;55.656;12.590;2023-02-24T03:34:50;100276.13;;;2.49;75.45
78299;BME280;67556;55.656;12.590;2023-02-24T03:37:21;100272.47;;;2.47;74.82
78299;BME280;67556;55.656;12.590;2023-02-24T03:39:51;100265.69;;;2.50;75.10
78299;BME280;67556;55.656;12.590;2023-02-24T03:42:19;100264.34;;;2.57;75.23
78299;BME280;67556;55.656;12.590;2023-02-24T03:44:47;100259.53;;;2.50;75.43
78299;BME280;67556;55.656;12.590;2023-02-24T03:47:14;100250.56;;;2.46;75.04
78299;BME280;67556;55.656;12.590;2023-02-24T03:49:41;100247.56;;;2.55;74.81
78299;BME280;67556;55.656;12.590;2023-02-24T03:52:18;100247.34;;;2.67;74.50
78299;BME280;67556;55.656;12.590;2023-02-24T03:55:14;100247.75;;;2.58;74.73
78299;BME280;67556;55.656;12.590;2023-02-24T03:57:48;100239.47;;;2.52;74.88
78299;BME280;67556;55.656;12.590;2023-02-24T04:03:21;100224.78;;;2.56;74.96
78299;BME280;67556;55.656;12.590;2023-02-24T04:06:03;100215.56;;;2.62;75.05
78299;BME280;67556;55.656;12.590;2023-02-24T04:08:37;100225.88;;;2.74;75.00
78299;BME280;67556;55.656;12.590;2023-02-24T04:11:13;100216.78;;;2.69;74.88
78299;BME280;67556;55.656;12.590;2023-02-24T04:13:48;100195.38;;;2.78;74.76
78299;BME280;67556;55.656;12.590;2023-02-24T04:16:20;100190.06;;;2.92;73.35
78299;BME280;67556;55.656;12.590;2023-02-24T04:18:54;100193.75;;;2.80;74.00
78299;BME280;67556;55.656;12.590;2023-02-24T04:21:27;100186.81;;;2.82;74.54
78299;BME280;67556;55.656;12.590;2023-02-24T04:23:56;100181.09;;;2.89;74.06
78299;BME280;67556;55.656;12.590;2023-02-24T04:26:27;100180.41;;;2.77;73.91
78299;BME280;67556;55.656;12.590;2023-02-24T04:28:55;100165.50;;;2.92;73.76
78299;BME280;67556;55.656;12.590;2023-02-24T04:31:23;100166.06;;;3.03;73.08
78299;BME280;67556;55.656;12.590;2023-02-24T04:33:51;100157.94;;;2.98;73.08
78299;BME280;67556;55.656;12.590;2023-02-24T04:36:18;100159.41;;;2.93;73.67
78299;BME280;67556;55.656;12.590;2023-02-24T04:38:45;100153.00;;;2.88;74.65
78299;BME280;67556;55.656;12.590;2023-02-24T04:41:18;100142.06;;;2.96;73.97
78299;BME280;67556;55.656;12.590;2023-02-24T04:43:49;100137.06;;;3.01;73.78
78299;BME280;67556;55.656;12.590;2023-02-24T04:46:23;100127.63;;;3.05;73.78
78299;BME280;67556;55.656;12.590;2023-02-24T04:48:51;100120.94;;;2.95;74.06
78299;BME280;67556;55.656;12.590;2023-02-24T04:51:18;100122.28;;;2.87;75.01
78299;BME280;67556;55.656;12.590;2023-02-24T04:53:48;100108.47;;;2.91;75.28
78299;BME280;67556;55.656;12.590;2023-02-24T04:56:18;100118.81;;;3.04;75.28
78299;BME280;67556;55.656;12.590;2023-02-24T04:59:02;100101.72;;;2.96;75.88
78299;BME280;67556;55.656;12.590;2023-02-24T05:01:30;100092.81;;;2.94;76.04
78299;BME280;67556;55.656;12.590;2023-02-24T05:03:56;100089.06;;;2.89;76.96
78299;BME280;67556;55.656;12.590;2023-02-24T05:06:25;100077.69;;;3.06;76.22
78299;BME280;67556;55.656;12.590;2023-02-24T05:08:51;100075.72;;;2.86;77.82
78299;BME280;67556;55.656;12.590;2023-02-24T05:11:20;100070.47;;;2.86;77.48
78299;BME280;67556;55.656;12.590;2023-02-24T05:13:50;100055.28;;;2.80;78.46
78299;BME280;67556;55.656;12.590;2023-02-24T05:16:19;100055.03;;;2.75;78.81
78299;BME280;67556;55.656;12.590;2023-02-24T05:18:47;100050.25;;;2.85;79.07
78299;BME280;67556;55.656;12.590;2023-02-24T05:21:21;100052.88;;;2.68;79.17
78299;BME280;67556;55.656;12.590;2023-02-24T05:24:00;100035.88;;;2.78;79.39
78299;BME280;67556;55.656;12.590;2023-02-24T05:26:32;100032.03;;;2.71;79.63
78299;BME280;67556;55.656;12.590;2023-02-24T05:29:01;100024.78;;;2.67;79.76
78299;BME280;67556;55.656;12.590;2023-02-24T05:31:47;100009.34;;;2.73;80.55
78299;BME280;67556;55.656;12.590;2023-02-24T05:34:32;99997.00;;;2.72;80.73
78299;BME280;67556;55.656;12.590;2023-02-24T05:37:12;100006.22;;;2.81;80.32
78299;BME280;67556;55.656;12.590;2023-02-24T05:40:05;99988.56;;;2.62;81.45
78299;BME280;67556;55.656;12.590;2023-02-24T05:42:34;99985.84;;;2.77;80.55
78299;BME280;67556;55.656;12.590;2023-02-24T05:45:19;99984.09;;;2.77;80.50
78299;BME280;67556;55.656;12.590;2023-02-24T05:48:06;99977.66;;;2.70;81.39
78299;BME280;67556;55.656;12.590;2023-02-24T05:50:52;99971.78;;;2.76;81.57
78299;BME280;67556;55.656;12.590;2023-02-24T05:53:38;99957.44;;;2.53;82.78
78299;BME280;67556;55.656;12.590;2023-02-24T05:56:06;99952.34;;;2.56;82.96
78299;BME280;67556;55.656;12.590;2023-02-24T05:58:51;99939.78;;;2.50;83.03
78299;BME280;67556;55.656;12.590;2023-02-24T06:01:26;99936.25;;;2.50;82.83
78299;BME280;67556;55.656;12.590;2023-02-24T06:03:59;99930.56;;;2.59;83.41
78299;BME280;67556;55.656;12.590;2023-02-24T06:06:31;99929.97;;;2.64;82.98
78299;BME280;67556;55.656;12.590;2023-02-24T06:08:59;99914.09;;;2.45;83.24
78299;BME280;67556;55.656;12.590;2023-02-24T06:11:32;99918.03;;;2.53;83.50
78299;BME280;67556;55.656;12.590;2023-02-24T06:14:01;99914.31;;;2.66;83.07
78299;BME280;67556;55.656;12.590;2023-02-24T06:16:40;99921.69;;;2.57;83.38
78299;BME280;67556;55.656;12.590;2023-02-24T06:19:10;99901.59;;;2.57;83.04
78299;BME280;67556;55.656;12.590;2023-02-24T06:21:39;99898.47;;;2.48;82.80
78299;BME280;67556;55.656;12.590;2023-02-24T06:24:10;99888.59;;;2.44;83.76
78299;BME280;67556;55.656;12.590;2023-02-24T06:26:40;99872.53;;;2.38;83.92
78299;BME280;67556;55.656;12.590;2023-02-24T06:29:11;99873.91;;;2.47;83.76
78299;BME280;67556;55.656;12.590;2023-02-24T06:31:41;99873.19;;;2.50;84.09
78299;BME280;67556;55.656;12.590;2023-02-24T06:34:11;99862.31;;;2.44;84.02
78299;BME280;67556;55.656;12.590;2023-02-24T06:36:40;99857.47;;;2.52;83.92
78299;BME280;67556;55.656;12.590;2023-02-24T06:39:11;99845.91;;;2.48;84.05
78299;BME280;67556;55.656;12.590;2023-02-24T06:41:38;99863.53;;;2.33;83.74
78299;BME280;67556;55.656;12.590;2023-02-24T06:44:07;99831.47;;;2.40;84.04
78299;BME280;67556;55.656;12.590;2023-02-24T06:46:36;99834.91;;;2.39;83.80
78299;BME280;67556;55.656;12.590;2023-02-24T06:49:02;99833.84;;;2.35;84.06
78299;BME280;67556;55.656;12.590;2023-02-24T06:51:31;99823.09;;;2.31;84.58
78299;BME280;67556;55.656;12.590;2023-02-24T06:53:59;99807.91;;;2.41;84.20
78299;BME280;67556;55.656;12.590;2023-02-24T06:56:27;99806.28;;;2.27;84.88
78299;BME280;67556;55.656;12.590;2023-02-24T06:58:59;99791.28;;;2.24;84.85
78299;BME280;67556;55.656;12.590;2023-02-24T07:01:26;99783.38;;;2.41;84.48
78299;BME280;67556;55.656;12.590;2023-02-24T07:04:12;99777.03;;;2.37;84.76
78299;BME280;67556;55.656;12.590;2023-02-24T07:06:48;99767.50;;;2.39;84.86
78299;BME280;67556;55.656;12.590;2023-02-24T07:09:25;99765.31;;;2.31;84.67
78299;BME280;67556;55.656;12.590;2023-02-24T07:12:00;99750.88;;;2.22;84.28
78299;BME280;67556;55.656;12.590;2023-02-24T07:14:36;99745.81;;;2.09;85.99
78299;BME280;67556;55.656;12.590;2023-02-24T07:17:03;99724.47;;;2.19;84.54
78299;BME280;67556;55.656;12.590;2023-02-24T07:19:30;99750.59;;;2.16;85.33
78299;BME280;67556;55.656;12.590;2023-02-24T07:22:00;99697.88;;;1.95;85.50
78299;BME280;67556;55.656;12.590;2023-02-24T07:24:36;99731.53;;;2.20;85.44
78299;BME280;67556;55.656;12.590;2023-02-24T07:27:07;99708.91;;;2.06;85.29
78299;BME280;67556;55.656;12.590;2023-02-24T07:29:36;99696.53;;;2.21;85.00
78299;BME280;67556;55.656;12.590;2023-02-24T07:32:04;99708.56;;;2.16;84.53
78299;BME280;67556;55.656;12.590;2023-02-24T07:34:33;99713.47;;;2.10;84.99
78299;BME280;67556;55.656;12.590;2023-02-24T07:37:06;99690.34;;;2.19;85.10
78299;BME280;67556;55.656;12.590;2023-02-24T07:39:36;99682.63;;;2.06;85.03
78299;BME280;67556;55.656;12.590;2023-02-24T07:42:04;99683.78;;;2.11;85.40
78299;BME280;67556;55.656;12.590;2023-02-24T07:44:30;99666.75;;;2.03;85.46
78299;BME280;67556;55.656;12.590;2023-02-24T07:47:03;99666.22;;;2.10;85.49
78299;BME280;67556;55.656;12.590;2023-02-24T07:49:33;99675.25;;;2.15;84.67
78299;BME280;67556;55.656;12.590;2023-02-24T07:52:02;99662.84;;;2.13;85.26
78299;BME280;67556;55.656;12.590;2023-02-24T07:54:39;99641.28;;;2.02;85.22
78299;BME280;67556;55.656;12.590;2023-02-24T07:57:07;99658.53;;;1.97;85.13
78299;BME280;67556;55.656;12.590;2023-02-24T07:59:38;99654.94;;;1.95;85.30
78299;BME280;67556;55.656;12.590;2023-02-24T08:02:10;99650.44;;;2.10;85.31
78299;BME280;67556;55.656;12.590;2023-02-24T08:04:38;99645.56;;;2.00;85.66
78299;BME280;67556;55.656;12.590;2023-02-24T08:07:15;99636.81;;;1.99;85.39
78299;BME280;67556;55.656;12.590;2023-02-24T08:09:43;99634.91;;;1.97;85.71
78299;BME280;67556;55.656;12.590;2023-02-24T08:12:33;99624.19;;;1.92;85.31
78299;BME280;67556;55.656;12.590;2023-02-24T08:15:01;99606.78;;;1.94;85.69
78299;BME280;67556;55.656;12.590;2023-02-24T08:17:42;99610.59;;;2.01;85.73
78299;BME280;67556;55.656;12.590;2023-02-24T08:20:13;99626.91;;;1.94;85.54
78299;BME280;67556;55.656;12.590;2023-02-24T08:22:52;99602.00;;;2.04;86.23
78299;BME280;67556;55.656;12.590;2023-02-24T08:25:23;99589.44;;;1.98;86.35
78299;BME280;67556;55.656;12.590;2023-02-24T08:28:00;99578.81;;;1.95;85.49
78299;BME280;67556;55.656;12.590;2023-02-24T08:30:41;99569.50;;;2.02;85.56
78299;BME280;67556;55.656;12.590;2023-02-24T08:33:13;99569.94;;;1.93;86.53
78299;BME280;67556;55.656;12.590;2023-02-24T08:35:42;99572.00;;;1.98;86.48
78299;BME280;67556;55.656;12.590;2023-02-24T08:38:12;99563.34;;;2.01;86.70
78299;BME280;67556;55.656;12.590;2023-02-24T08:40:50;99543.09;;;1.98;86.76
78299;BME280;67556;55.656;12.590;2023-02-24T08:43:22;99531.47;;;2.11;85.80
78299;BME280;67556;55.656;12.590;2023-02-24T08:46:05;99509.88;;;1.99;86.33
78299;BME280;67556;55.656;12.590;2023-02-24T08:48:45;99519.88;;;2.25;86.19
78299;BME280;67556;55.656;12.590;2023-02-24T08:51:15;99519.44;;;2.16;86.39
78299;BME280;67556;55.656;12.590;2023-02-24T08:53:44;99514.72;;;2.09;86.29
78299;BME280;67556;55.656;12.590;2023-02-24T08:56:15;99511.84;;;2.22;85.98
78299;BME280;67556;55.656;12.590;2023-02-24T08:58:49;99509.00;;;2.18;86.65
78299;BME280;67556;55.656;12.590;2023-02-24T09:01:23;99497.22;;;2.28;86.59
78299;BME280;67556;55.656;12.590;2023-02-24T09:03:54;99506.34;;;2.36;86.56
78299;BME280;67556;55.656;12.590;2023-02-24T09:06:32;99489.75;;;2.37;86.36
78299;BME280;67556;55.656;12.590;2023-02-24T09:09:02;99477.31;;;2.52;86.23
78299;BME280;67556;55.656;12.590;2023-02-24T09:11:49;99483.81;;;2.60;86.78
78299;BME280;67556;55.656;12.590;2023-02-24T09:14:23;99505.25;;;2.50;86.69
78299;BME280;67556;55.656;12.590;2023-02-24T09:16:52;99477.59;;;2.58;86.14
78299;BME280;67556;55.656;12.590;2023-02-24T09:19:36;99468.63;;;2.53;86.12
78299;BME280;67556;55.656;12.590;2023-02-24T09:22:28;99459.91;;;2.54;86.36
78299;BME280;67556;55.656;12.590;2023-02-24T09:24:56;99468.25;;;2.65;85.88
78299;BME280;67556;55.656;12.590;2023-02-24T09:27:49;99445.03;;;2.55;86.12
78299;BME280;67556;55.656;12.590;2023-02-24T09:30:28;99448.06;;;2.64;86.08
78299;BME280;67556;55.656;12.590;2023-02-24T09:33:31;99430.84;;;2.70;85.52
78299;BME280;67556;55.656;12.590;2023-02-24T09:36:12;99434.56;;;2.56;85.97
78299;BME280;67556;55.656;12.590;2023-02-24T09:38:46;99433.88;;;2.80;86.04
78299;BME280;67556;55.656;12.590;2023-02-24T09:41:35;99408.81;;;2.68;86.02
78299;BME280;67556;55.656;12.590;2023-02-24T09:44:24;99405.00;;;2.81;86.63
78299;BME280;67556;55.656;12.590;2023-02-24T09:46:55;99414.81;;;2.85;86.94
78299;BME280;67556;55.656;12.590;2023-02-24T09:49:46;99396.41;;;2.85;86.63
78299;BME280;67556;55.656;12.590;2023-02-24T09:52:15;99395.56;;;2.86;86.87
78299;BME280;67556;55.656;12.590;2023-02-24T09:54:48;99401.88;;;2.90;87.29
78299;BME280;67556;55.656;12.590;2023-02-24T09:57:39;99388.28;;;3.00;86.80
78299;BME280;67556;55.656;12.590;2023-02-24T10:00:31;99383.59;;;2.93;87.09
78299;BME280;67556;55.656;12.590;2023-02-24T10:03:12;99386.59;;;3.02;87.24
78299;BME280;67556;55.656;12.590;2023-02-24T10:05:51;99371.34;;;3.14;87.30
78299;BME280;67556;55.656;12.590;2023-02-24T10:08:30;99366.97;;;3.15;87.73
78299;BME280;67556;55.656;12.590;2023-02-24T10:10:59;99364.28;;;3.13;87.94
78299;BME280;67556;55.656;12.590;2023-02-24T10:13:36;99364.78;;;3.25;87.77
78299;BME280;67556;55.656;12.590;2023-02-24T10:16:10;99352.88;;;3.13;87.44
78299;BME280;67556;55.656;12.590;2023-02-24T10:19:04;99368.88;;;3.40;87.97
78299;BME280;67556;55.656;12.590;2023-02-24T10:22:03;99361.41;;;3.50;86.96
78299;BME280;67556;55.656;12.590;2023-02-24T10:24:36;99354.91;;;3.63;86.54
78299;BME280;67556;55.656;12.590;2023-02-24T10:27:15;99340.16;;;3.68;87.27
78299;BME280;67556;55.656;12.590;2023-02-24T10:30:02;99329.03;;;3.53;86.68
78299;BME280;67556;55.656;12.590;2023-02-24T10:32:51;99348.91;;;3.67;86.88
78299;BME280;67556;55.656;12.590;2023-02-24T10:35:25;99344.75;;;3.74;87.23
78299;BME280;67556;55.656;12.590;2023-02-24T10:38:02;99331.91;;;3.82;87.03
78299;BME280;67556;55.656;12.590;2023-02-24T10:40:45;99324.41;;;3.92;85.94
78299;BME280;67556;55.656;12.590;2023-02-24T10:43:18;99322.03;;;4.00;86.65
78299;BME280;67556;55.656;12.590;2023-02-24T10:45:49;99322.97;;;4.00;85.77
78299;BME280;67556;55.656;12.590;2023-02-24T10:48:31;99318.06;;;4.11;85.85
78299;BME280;67556;55.656;12.590;2023-02-24T10:51:15;99320.03;;;4.17;85.27
78299;BME280;67556;55.656;12.590;2023-02-24T10:54:09;99299.50;;;4.08;85.61
78299;BME280;67556;55.656;12.590;2023-02-24T10:57:03;99306.41;;;4.29;85.19
78299;BME280;67556;55.656;12.590;2023-02-24T10:59:47;99292.47;;;4.31;85.44
78299;BME280;67556;55.656;12.590;2023-02-24T11:02:49;99302.84;;;4.27;86.15
78299;BME280;67556;55.656;12.590;2023-02-24T11:05:37;99291.25;;;4.21;86.54
78299;BME280;67556;55.656;12.590;2023-02-24T11:08:33;99291.88;;;4.40;86.58
78299;BME280;67556;55.656;12.590;2023-02-24T11:11:20;99283.84;;;4.37;86.45
78299;BME280;67556;55.656;12.590;2023-02-24T11:13:55;99281.44;;;4.43;86.70
78299;BME280;67556;55.656;12.590;2023-02-24T11:16:45;99277.56;;;4.59;86.07
78299;BME280;67556;55.656;12.590;2023-02-24T11:19:34;99277.66;;;4.35;86.74
78299;BME280;67556;55.656;12.590;2023-02-24T11:22:05;99267.19;;;4.38;86.54
78299;BME280;67556;55.656;12.590;2023-02-24T11:24:35;99263.81;;;4.42;86.93
78299;BME280;67556;55.656;12.590;2023-02-24T11:27:02;99254.09;;;4.39;87.31
78299;BME280;67556;55.656;12.590;2023-02-24T11:29:44;99247.22;;;4.44;87.10
78299;BME280;67556;55.656;12.590;2023-02-24T11:32:29;99245.97;;;4.86;86.41
78299;BME280;67556;55.656;12.590;2023-02-24T11:35:11;99255.97;;;4.96;85.79
78299;BME280;67556;55.656;12.590;2023-02-24T11:37:58;99238.72;;;4.80;86.61
78299;BME280;67556;55.656;12.590;2023-02-24T11:40:31;99236.28;;;5.13;85.79
78299;BME280;67556;55.656;12.590;2023-02-24T11:43:10;99217.00;;;5.14;85.82
78299;BME280;67556;55.656;12.590;2023-02-24T11:45:46;99210.78;;;5.14;85.66
78299;BME280;67556;55.656;12.590;2023-02-24T11:48:19;99200.03;;;5.06;85.55
78299;BME280;67556;55.656;12.590;2023-02-24T11:50:51;99200.59;;;5.26;85.34
78299;BME280;67556;55.656;12.590;2023-02-24T11:53:33;99200.44;;;5.50;85.21
78299;BME280;67556;55.656;12.590;2023-02-24T11:56:06;99204.88;;;5.51;83.06
78299;BME280;67556;55.656;12.590;2023-02-24T11:58:47;99207.25;;;5.13;83.91
78299;BME280;67556;55.656;12.590;2023-02-24T12:01:25;99203.63;;;5.10;84.15
78299;BME280;67556;55.656;12.590;2023-02-24T12:04:04;99205.19;;;5.03;83.15
78299;BME280;67556;55.656;12.590;2023-02-24T12:06:44;99186.50;;;4.97;83.00
78299;BME280;67556;55.656;12.590;2023-02-24T12:09:18;99186.59;;;4.98;83.06
78299;BME280;67556;55.656;12.590;2023-02-24T12:11:52;99184.06;;;5.02;82.38
78299;BME280;67556;55.656;12.590;2023-02-24T12:14:25;99176.66;;;5.18;81.63
78299;BME280;67556;55.656;12.590;2023-02-24T12:16:59;99166.09;;;5.18;81.34
78299;BME280;67556;55.656;12.590;2023-02-24T12:19:31;99176.06;;;5.00;82.24
78299;BME280;67556;55.656;12.590;2023-02-24T12:22:04;99165.63;;;5.03;82.01
78299;BME280;67556;55.656;12.590;2023-02-24T12:24:40;99171.78;;;5.04;82.91
78299;BME280;67556;55.656;12.590;2023-02-24T12:27:33;99159.63;;;5.09;82.05
78299;BME280;67556;55.656;12.590;2023-02-24T12:30:21;99155.59;;;5.21;82.38
78299;BME280;67556;55.656;12.590;2023-02-24T12:33:08;99152.28;;;5.59;81.68
78299;BME280;67556;55.656;12.590;2023-02-24T12:35:43;99135.53;;;5.57;81.21
78299;BME280;67556;55.656;12.590;2023-02-24T12:38:37;99137.19;;;5.53;81.55
78299;BME280;67556;55.656;12.590;2023-02-24T12:44:22;99142.59;;;5.58;81.82
78299;BME280;67556;55.656;12.590;2023-02-24T12:47:01;99136.91;;;5.44;80.39
78299;BME280;67556;55.656;12.590;2023-02-24T12:49:39;99131.47;;;5.39;81.02
78299;BME280;67556;55.656;12.590;2023-02-24T12:52:19;99134.41;;;5.48;80.05
78299;BME280;67556;55.656;12.590;2023-02-24T12:55:12;99129.47;;;5.31;80.17
78299;BME280;67556;55.656;12.590;2023-02-24T12:57:54;99133.03;;;5.31;79.93
78299;BME280;67556;55.656;12.590;2023-02-24T13:00:35;99129.22;;;5.21;79.68
78299;BME280;67556;55.656;12.590;2023-02-24T13:03:19;99130.47;;;5.34;78.78
78299;BME280;67556;55.656;12.590;2023-02-24T13:05:53;99118.75;;;5.24;79.08
78299;BME280;67556;55.656;12.590;2023-02-24T13:08:43;99127.78;;;5.33;78.94
78299;BME280;67556;55.656;12.590;2023-02-24T13:11:24;99115.22;;;5.24;78.87
78299;BME280;67556;55.656;12.590;2023-02-24T13:14:21;99111.00;;;5.31;78.86
78299;BME280;67556;55.656;12.590;2023-02-24T13:17:19;99113.84;;;5.38;78.69
78299;BME280;67556;55.656;12.590;2023-02-24T13:19:49;99112.75;;;5.30;79.33
78299;BME280;67556;55.656;12.590;2023-02-24T13:22:23;99129.66;;;5.07;79.72
78299;BME280;67556;55.656;12.590;2023-02-24T13:24:59;99109.00;;;5.22;78.84
78299;BME280;67556;55.656;12.590;2023-02-24T13:27:57;99108.19;;;6.21;75.55
78299;BME280;67556;55.656;12.590;2023-02-24T13:30:31;99108.06;;;6.90;72.44
78299;BME280;67556;55.656;12.590;2023-02-24T13:33:22;99105.47;;;6.92;70.00
78299;BME280;67556;55.656;12.590;2023-02-24T13:36:12;99098.13;;;6.42;72.88
78299;BME280;67556;55.656;12.590;2023-02-24T13:38:41;99094.78;;;6.89;71.25
78299;BME280;67556;55.656;12.590;2023-02-24T13:41:34;99077.22;;;7.33;69.95
78299;BME280;67556;55.656;12.590;2023-02-24T13:44:21;99084.94;;;7.68;68.55